createdAt,value
2022-12-17T00:00:33.332Z,-4.23
2022-12-17T00:03:19.767Z,-4.25
2022-12-17T00:06:05.473Z,-4.27
2022-12-17T00:08:50.362Z,-4.22
2022-12-17T00:11:35.212Z,-4.28
2022-12-17T00:14:20.175Z,-4.24
2022-12-17T00:17:05.215Z,-4.25
2022-12-17T00:19:50.531Z,-4.22
2022-12-17T00:22:35.363Z,-4.25
2022-12-17T00:25:20.112Z,-4.19
2022-12-17T00:28:05.158Z,-4.18
2022-12-17T00:30:50.194Z,-4.18
2022-12-17T00:33:35.487Z,-4.19
2022-12-17T00:36:20.891Z,-4.22
2022-12-17T00:39:05.788Z,-4.22
2022-12-17T00:41:50.796Z,-4.14
2022-12-17T00:44:35.856Z,-4.18
2022-12-17T00:47:20.747Z,-4.09
2022-12-17T00:50:06.966Z,-4.04
2022-12-17T00:52:52.113Z,-4.04
2022-12-17T00:55:36.989Z,-4.04
2022-12-17T00:58:22.361Z,-4.04
2022-12-17T01:01:07.253Z,-4.08
2022-12-17T01:03:52.398Z,-4.11
2022-12-17T01:06:37.616Z,-4.14
2022-12-17T01:09:22.361Z,-4.12
2022-12-17T01:12:07.382Z,-4.12
2022-12-17T01:14:54.916Z,-4.12
2022-12-17T01:17:40.168Z,-4.10
2022-12-17T01:20:26.152Z,-4.13
2022-12-17T01:23:11.655Z,-4.18
2022-12-17T01:26:16.459Z,-4.23
2022-12-17T01:29:01.766Z,-4.31
2022-12-17T01:31:47.155Z,-4.26
2022-12-17T01:34:32.105Z,-4.29
2022-12-17T01:37:16.988Z,-4.33
2022-12-17T01:40:01.970Z,-4.37
2022-12-17T01:43:01.208Z,-4.38
2022-12-17T01:45:55.448Z,-4.39
2022-12-17T01:48:46.169Z,-4.40
2022-12-17T01:51:32.893Z,-4.40
2022-12-17T01:54:20.760Z,-4.39
2022-12-17T01:57:06.051Z,-4.43
2022-12-17T02:00:02.430Z,-4.40
2022-12-17T02:02:48.002Z,-4.40
2022-12-17T02:05:33.297Z,-4.40
2022-12-17T02:08:37.116Z,-4.39
2022-12-17T02:11:44.989Z,-4.38
2022-12-17T02:14:52.001Z,-4.43
2022-12-17T02:17:42.704Z,-4.46
2022-12-17T02:20:36.680Z,-4.49
2022-12-17T02:23:40.613Z,-4.51
2022-12-17T02:26:40.036Z,-4.54
2022-12-17T02:29:31.188Z,-4.52
2022-12-17T02:32:16.447Z,-4.52
2022-12-17T02:35:03.977Z,-4.57
2022-12-17T02:37:50.377Z,-4.55
2022-12-17T02:40:39.180Z,-4.55
2022-12-17T02:43:26.278Z,-4.57
2022-12-17T02:46:14.659Z,-4.56
2022-12-17T02:49:00.485Z,-4.55
2022-12-17T02:51:49.082Z,-4.54
2022-12-17T02:54:34.213Z,-4.52
2022-12-17T02:57:19.331Z,-4.50
2022-12-17T03:00:04.178Z,-4.56
2022-12-17T03:02:51.717Z,-4.55
2022-12-17T03:05:45.043Z,-4.59
2022-12-17T03:08:30.887Z,-4.58
2022-12-17T03:11:16.247Z,-4.60
2022-12-17T03:14:01.217Z,-4.64
2022-12-17T03:16:46.583Z,-4.66
2022-12-17T03:19:31.769Z,-4.70
2022-12-17T03:22:16.762Z,-4.72
2022-12-17T03:25:01.968Z,-4.72
2022-12-17T03:27:46.882Z,-4.72
2022-12-17T03:30:35.736Z,-4.74
2022-12-17T03:33:21.385Z,-4.77
2022-12-17T03:36:06.274Z,-4.82
2022-12-17T03:38:51.065Z,-4.85
2022-12-17T03:41:36.041Z,-4.89
2022-12-17T03:44:20.871Z,-4.81
2022-12-17T03:47:05.659Z,-5.00
2022-12-17T03:49:50.636Z,-4.79
2022-12-17T03:52:35.472Z,-4.76
2022-12-17T03:55:20.360Z,-4.77
2022-12-17T03:58:05.055Z,-4.76
2022-12-17T04:00:50.130Z,-4.78
2022-12-17T04:03:35.549Z,-4.81
2022-12-17T04:06:20.944Z,-4.78
2022-12-17T04:09:05.838Z,-4.79
2022-12-17T04:11:50.676Z,-4.78
2022-12-17T04:14:35.470Z,-4.72
2022-12-17T04:17:20.320Z,-4.72
2022-12-17T04:20:05.223Z,-4.67
2022-12-17T04:22:49.978Z,-4.62
2022-12-17T04:25:34.913Z,-4.65
2022-12-17T04:28:19.724Z,-4.68
2022-12-17T04:31:04.579Z,-4.75
2022-12-17T04:33:49.731Z,-4.81
2022-12-17T04:36:34.568Z,-4.84
2022-12-17T04:39:19.325Z,-4.88
2022-12-17T04:42:04.125Z,-4.90
2022-12-17T04:44:49.130Z,-4.87
2022-12-17T04:47:33.968Z,-4.90
2022-12-17T04:50:18.918Z,-4.88
2022-12-17T04:53:03.707Z,-4.81
2022-12-17T04:55:48.614Z,-4.78
2022-12-17T04:58:33.414Z,-4.76
2022-12-17T05:01:18.470Z,-4.81
2022-12-17T05:04:03.693Z,-4.93
2022-12-17T05:06:48.949Z,-4.93
2022-12-17T05:09:34.129Z,-4.98
2022-12-17T05:12:18.846Z,-5.04
2022-12-17T05:15:03.666Z,-4.98
2022-12-17T05:17:48.452Z,-4.99
2022-12-17T05:20:33.281Z,-5.07
2022-12-17T05:23:25.732Z,-5.06
2022-12-17T05:26:23.658Z,-5.06
2022-12-17T05:29:12.645Z,-5.12
2022-12-17T05:32:01.015Z,-5.10
2022-12-17T05:34:45.728Z,-5.06
2022-12-17T05:37:30.526Z,-5.01
2022-12-17T05:40:15.640Z,-4.98
2022-12-17T05:43:00.482Z,-4.97
2022-12-17T05:45:45.397Z,-5.01
2022-12-17T05:48:30.250Z,-5.02
2022-12-17T05:51:15.409Z,-5.01
2022-12-17T05:54:00.282Z,-5.02
2022-12-17T05:56:45.133Z,-5.05
2022-12-17T05:59:29.857Z,-5.07
2022-12-17T06:02:14.796Z,-5.14
2022-12-17T06:05:02.275Z,-5.13
2022-12-17T06:07:47.495Z,-5.17
2022-12-17T06:10:32.383Z,-5.20
2022-12-17T06:13:17.105Z,-5.20
2022-12-17T06:16:02.103Z,-5.24
2022-12-17T06:18:47.248Z,-5.32
2022-12-17T06:21:32.132Z,-5.42
2022-12-17T06:24:16.964Z,-5.47
2022-12-17T06:27:01.678Z,-5.48
2022-12-17T06:29:46.653Z,-5.46
2022-12-17T06:32:31.484Z,-5.48
2022-12-17T06:35:16.283Z,-5.47
2022-12-17T06:38:01.138Z,-5.52
2022-12-17T06:41:00.139Z,-5.51
2022-12-17T06:43:44.933Z,-5.56
2022-12-17T06:46:29.818Z,-5.61
2022-12-17T06:49:14.998Z,-5.68
2022-12-17T06:51:59.784Z,-5.73
2022-12-17T06:54:44.659Z,-5.76
2022-12-17T06:57:29.864Z,-5.76
2022-12-17T07:00:14.716Z,-5.73
2022-12-17T07:02:59.787Z,-5.70
2022-12-17T07:05:45.395Z,-5.81
2022-12-17T07:08:30.499Z,-5.95
2022-12-17T07:11:18.777Z,-6.04
2022-12-17T07:14:04.094Z,-6.08
2022-12-17T07:16:48.852Z,-6.08
2022-12-17T07:19:33.954Z,-6.09
2022-12-17T07:22:18.773Z,-6.13
2022-12-17T07:25:03.935Z,-6.18
2022-12-17T07:27:48.892Z,-6.19
2022-12-17T07:30:33.676Z,-6.14
2022-12-17T07:33:20.104Z,-6.11
2022-12-17T07:36:04.918Z,-6.12
2022-12-17T07:38:49.851Z,-6.20
2022-12-17T07:41:34.574Z,-6.30
2022-12-17T07:44:19.517Z,-6.22
2022-12-17T07:47:04.391Z,-6.18
2022-12-17T07:49:49.751Z,-6.22
2022-12-17T07:52:34.625Z,-6.27
2022-12-17T07:55:19.862Z,-6.21
2022-12-17T07:58:04.712Z,-6.13
2022-12-17T08:00:54.015Z,-6.05
2022-12-17T08:03:39.449Z,-6.01
2022-12-17T08:06:25.194Z,-6.00
2022-12-17T08:09:09.964Z,-6.04
2022-12-17T08:11:55.213Z,-6.07
2022-12-17T08:14:40.057Z,-6.05
2022-12-17T08:17:24.993Z,-6.03
2022-12-17T08:20:09.882Z,-5.99
2022-12-17T08:22:54.696Z,-5.95
2022-12-17T08:25:39.615Z,-5.85
2022-12-17T08:28:49.502Z,-5.77
2022-12-17T08:31:29.473Z,-5.74
2022-12-17T08:34:14.354Z,-5.68
2022-12-17T08:36:59.195Z,-5.64
2022-12-17T08:40:03.962Z,-5.61
2022-12-17T08:42:48.989Z,-5.60
2022-12-17T08:45:34.141Z,-5.63
2022-12-17T08:48:42.820Z,-5.53
2022-12-17T08:51:27.948Z,-5.40
2022-12-17T08:54:12.738Z,-5.25
2022-12-17T08:56:57.701Z,-5.11
2022-12-17T08:59:42.599Z,-4.93
2022-12-17T09:02:28.113Z,-4.72
2022-12-17T09:05:13.064Z,-4.61
2022-12-17T09:08:05.820Z,-4.51
2022-12-17T09:10:51.083Z,-4.41
2022-12-17T09:13:36.177Z,-4.20
2022-12-17T09:16:21.189Z,-3.99
2022-12-17T09:19:06.242Z,-3.83
2022-12-17T09:21:51.045Z,-3.73
2022-12-17T09:24:35.833Z,-3.59
2022-12-17T09:27:20.911Z,-3.40
2022-12-17T09:30:05.710Z,-3.06
2022-12-17T09:32:50.605Z,-2.74
2022-12-17T09:35:35.721Z,-2.34
2022-12-17T09:38:20.689Z,-2.10
2022-12-17T09:41:08.805Z,-1.85
2022-12-17T09:44:09.358Z,-1.64
2022-12-17T09:47:19.531Z,-1.29
2022-12-17T09:50:04.240Z,-1.04
2022-12-17T09:52:55.070Z,-0.89
2022-12-17T09:55:46.014Z,-0.72
2022-12-17T09:58:44.018Z,-0.55
2022-12-17T10:01:43.687Z,-0.33
2022-12-17T10:04:46.959Z,-0.05
2022-12-17T10:07:37.122Z,0.16
2022-12-17T10:10:35.647Z,0.27
2022-12-17T10:13:20.452Z,0.41
2022-12-17T10:16:05.354Z,0.52
2022-12-17T10:18:50.500Z,0.75
2022-12-17T10:21:37.885Z,0.95
2022-12-17T10:24:25.391Z,1.15
2022-12-17T10:27:10.586Z,1.32
2022-12-17T10:29:55.877Z,1.41
2022-12-17T10:32:43.384Z,1.52
2022-12-17T10:35:55.505Z,1.65
2022-12-17T10:38:46.597Z,1.76
2022-12-17T10:41:43.785Z,1.92
2022-12-17T10:44:39.649Z,2.10
2022-12-17T10:47:30.488Z,2.28
2022-12-17T10:50:17.194Z,2.49
2022-12-17T10:53:04.574Z,2.63
2022-12-17T10:55:51.410Z,2.73
2022-12-17T10:58:48.382Z,2.86
2022-12-17T11:01:42.467Z,2.93
2022-12-17T11:04:43.171Z,3.07
2022-12-17T11:07:33.987Z,3.18
2022-12-17T11:10:20.815Z,3.30
2022-12-17T11:13:20.347Z,3.47
2022-12-17T11:16:08.246Z,3.52
2022-12-17T11:19:02.696Z,3.68
2022-12-17T11:21:53.634Z,3.75
2022-12-17T11:24:50.942Z,3.85
2022-12-17T11:27:40.336Z,4.01
2022-12-17T11:30:40.475Z,4.10
2022-12-17T11:33:40.662Z,4.28
2022-12-17T11:36:45.594Z,4.41
2022-12-17T11:39:57.025Z,4.54
2022-12-17T11:43:11.053Z,4.68
2022-12-17T11:46:13.580Z,4.85
2022-12-17T11:49:06.662Z,4.96
2022-12-17T11:52:15.909Z,5.01
2022-12-17T11:55:28.452Z,5.07
2022-12-17T11:58:36.731Z,5.22
2022-12-17T12:01:34.951Z,5.31
2022-12-17T12:04:33.193Z,5.28
2022-12-17T12:07:38.772Z,5.32
2022-12-17T12:11:20.953Z,5.35
2022-12-17T12:14:11.758Z,5.42
2022-12-17T12:17:08.545Z,5.48
2022-12-17T12:20:18.958Z,5.54
2022-12-17T12:23:21.360Z,5.55
2022-12-17T12:26:40.978Z,5.43
2022-12-17T12:29:47.310Z,5.47
2022-12-17T12:33:09.660Z,5.48
2022-12-17T12:35:56.845Z,5.44
2022-12-17T12:38:52.793Z,5.53
2022-12-17T12:41:49.920Z,5.61
2022-12-17T12:44:49.850Z,5.43
2022-12-17T12:47:59.049Z,5.28
2022-12-17T12:51:33.591Z,5.28
2022-12-17T12:54:21.032Z,5.37
2022-12-17T12:57:06.275Z,5.44
2022-12-17T12:59:53.735Z,5.50
2022-12-17T13:02:38.481Z,5.55
2022-12-17T13:05:33.581Z,5.51
2022-12-17T13:08:23.129Z,5.40
2022-12-17T13:10:51.061Z,5.25
2022-12-17T13:13:27.576Z,5.13
2022-12-17T13:15:57.531Z,5.06
2022-12-17T13:18:32.997Z,5.06
2022-12-17T13:21:02.868Z,5.02
2022-12-17T13:23:38.046Z,4.98
2022-12-17T13:26:30.006Z,4.98
2022-12-17T13:29:11.609Z,4.91
2022-12-17T13:32:04.194Z,4.93
2022-12-17T13:34:52.798Z,4.87
2022-12-17T13:37:22.294Z,4.76
2022-12-17T13:39:54.683Z,4.62
2022-12-17T13:42:30.323Z,4.38
2022-12-17T13:44:57.794Z,4.29
2022-12-17T13:47:28.049Z,4.28
2022-12-17T13:50:32.274Z,4.22
2022-12-17T13:52:43.332Z,4.15
2022-12-17T13:55:19.468Z,4.05
2022-12-17T13:57:47.840Z,3.95
2022-12-17T14:00:20.477Z,3.82
2022-12-17T14:02:47.557Z,3.69
2022-12-17T14:05:41.558Z,3.56
2022-12-17T14:08:08.986Z,3.46
2022-12-17T14:10:35.538Z,3.38
2022-12-17T14:13:12.980Z,3.23
2022-12-17T14:15:47.224Z,2.98
2022-12-17T14:18:19.925Z,2.53
2022-12-17T14:20:47.609Z,2.20
2022-12-17T14:23:28.770Z,2.01
2022-12-17T14:25:56.428Z,1.91
2022-12-17T14:28:48.702Z,1.90
2022-12-17T14:31:29.882Z,1.72
2022-12-17T14:34:08.674Z,1.46
2022-12-17T14:36:37.908Z,1.16
2022-12-17T14:39:24.170Z,0.89
2022-12-17T14:42:10.168Z,0.69
2022-12-17T14:44:42.729Z,0.43
2022-12-17T14:47:23.423Z,0.21
2022-12-17T14:50:12.657Z,-0.03
2022-12-17T14:52:44.415Z,-0.22
2022-12-17T14:55:36.847Z,-0.60
2022-12-17T14:58:12.159Z,-1.02
2022-12-17T15:00:45.272Z,-1.32
2022-12-17T15:03:18.371Z,-1.56
2022-12-17T15:05:51.084Z,-1.79
2022-12-17T15:08:17.628Z,-2.01
2022-12-17T15:10:44.092Z,-2.25
2022-12-17T15:13:10.533Z,-2.43
2022-12-17T15:15:36.923Z,-2.56
2022-12-17T15:18:03.423Z,-2.66
2022-12-17T15:20:31.128Z,-2.79
2022-12-17T15:22:57.707Z,-2.89
2022-12-17T15:25:24.174Z,-3.03
2022-12-17T15:27:50.868Z,-3.09
2022-12-17T15:30:17.932Z,-3.14
2022-12-17T15:32:45.225Z,-3.25
2022-12-17T15:35:13.362Z,-3.36
2022-12-17T15:37:40.311Z,-3.44
2022-12-17T15:40:07.937Z,-3.50
2022-12-17T15:42:53.025Z,-3.52
2022-12-17T15:45:19.429Z,-3.55
2022-12-17T15:47:45.840Z,-3.67
2022-12-17T15:50:12.237Z,-3.77
2022-12-17T15:52:38.674Z,-3.87
2022-12-17T15:55:05.505Z,-3.92
2022-12-17T15:57:32.006Z,-3.96
2022-12-17T15:59:58.453Z,-4.03
2022-12-17T16:02:25.108Z,-4.10
2022-12-17T16:04:52.630Z,-4.09
2022-12-17T16:07:19.142Z,-4.15
2022-12-17T16:09:45.545Z,-4.10
2022-12-17T16:12:11.991Z,-4.14
2022-12-17T16:14:38.451Z,-4.16
2022-12-17T16:17:04.874Z,-4.16
2022-12-17T16:19:31.353Z,-4.18
2022-12-17T16:21:57.810Z,-4.22
2022-12-17T16:24:24.218Z,-4.17
2022-12-17T16:26:50.715Z,-4.16
2022-12-17T16:29:17.140Z,-4.15
2022-12-17T16:31:43.668Z,-4.15
2022-12-17T16:34:11.761Z,-4.16
2022-12-17T16:36:38.663Z,-4.17
2022-12-17T16:39:05.580Z,-4.18
2022-12-17T16:41:32.455Z,-4.18
2022-12-17T16:43:59.201Z,-4.20
2022-12-17T16:46:31.564Z,-4.19
2022-12-17T16:49:00.292Z,-4.21
2022-12-17T16:51:29.532Z,-4.28
2022-12-17T16:53:57.538Z,-4.21
2022-12-17T16:56:27.527Z,-4.20
2022-12-17T16:58:55.108Z,-4.26
2022-12-17T17:01:25.360Z,-4.22
2022-12-17T17:03:52.491Z,-4.23
2022-12-17T17:06:19.490Z,-4.25
2022-12-17T17:08:46.829Z,-4.34
2022-12-17T17:11:15.569Z,-4.28
2022-12-17T17:13:42.711Z,-4.29
2022-12-17T17:16:10.720Z,-4.30
2022-12-17T17:18:38.026Z,-4.31
2022-12-17T17:21:19.607Z,-4.33
2022-12-17T17:23:46.809Z,-4.35
2022-12-17T17:26:13.916Z,-4.39
2022-12-17T17:28:40.908Z,-4.43
2022-12-17T17:31:10.772Z,-4.46
2022-12-17T17:33:39.994Z,-4.47
2022-12-17T17:36:08.725Z,-4.48
2022-12-17T17:38:37.113Z,-4.49
2022-12-17T17:41:04.784Z,-4.51
2022-12-17T17:43:31.800Z,-4.51
2022-12-17T17:46:10.507Z,-4.49
2022-12-17T17:48:37.732Z,-4.54
2022-12-17T17:51:08.320Z,-4.54
2022-12-17T17:53:35.584Z,-4.57
2022-12-17T17:56:07.545Z,-4.57
2022-12-17T17:58:34.785Z,-4.59
2022-12-17T18:01:08.296Z,-4.60
2022-12-17T18:03:34.911Z,-4.60
2022-12-17T18:06:06.232Z,-4.67
2022-12-17T18:08:33.005Z,-4.65
2022-12-17T18:11:01.972Z,-4.72
2022-12-17T18:13:47.003Z,-4.74
2022-12-17T18:18:41.594Z,-4.85
2022-12-17T18:21:17.173Z,-4.84
2022-12-17T18:23:43.803Z,-4.85
2022-12-17T18:26:16.756Z,-4.93
2022-12-17T18:28:44.348Z,-4.93
2022-12-17T18:31:22.926Z,-4.95
2022-12-17T18:33:58.638Z,-4.97
2022-12-17T18:36:28.661Z,-4.95
2022-12-17T18:39:00.733Z,-4.98
2022-12-17T18:41:46.521Z,-4.99
2022-12-17T18:44:14.359Z,-5.07
2022-12-17T18:46:40.868Z,-5.09
2022-12-17T18:49:09.790Z,-5.07
2022-12-17T18:51:37.964Z,-5.07
2022-12-17T18:54:08.495Z,-5.07
2022-12-17T18:57:00.519Z,-5.08
2022-12-17T18:59:29.074Z,-5.06
2022-12-17T19:01:56.600Z,-5.05
2022-12-17T19:04:23.925Z,-5.06
2022-12-17T19:06:53.280Z,-5.05
2022-12-17T19:09:28.965Z,-5.03
2022-12-17T19:11:56.045Z,-5.05
2022-12-17T19:14:23.232Z,-5.06
2022-12-17T19:16:51.276Z,-5.10
2022-12-17T19:19:18.962Z,-5.17
2022-12-17T19:21:46.022Z,-5.20
2022-12-17T19:24:14.452Z,-5.22
2022-12-17T19:26:41.105Z,-5.29
2022-12-17T19:29:08.534Z,-5.27
2022-12-17T19:31:35.306Z,-5.33
2022-12-17T19:34:04.874Z,-5.34
2022-12-17T19:36:33.213Z,-5.33
2022-12-17T19:39:03.485Z,-5.34
2022-12-17T19:41:31.878Z,-5.39
2022-12-17T19:44:01.054Z,-5.36
2022-12-17T19:46:27.854Z,-5.34
2022-12-17T19:48:54.842Z,-5.35
2022-12-17T19:51:25.931Z,-5.29
2022-12-17T19:53:52.619Z,-5.36
2022-12-17T19:56:26.226Z,-5.44
2022-12-17T19:58:55.969Z,-5.49
2022-12-17T20:01:25.585Z,-5.48
2022-12-17T20:03:53.690Z,-5.55
2022-12-17T20:06:23.802Z,-5.55
2022-12-17T20:08:50.682Z,-5.57
2022-12-17T20:11:33.425Z,-5.60
2022-12-17T20:14:26.548Z,-5.60
2022-12-17T20:16:56.954Z,-5.58
2022-12-17T20:19:26.073Z,-5.56
2022-12-17T20:21:53.466Z,-5.53
2022-12-17T20:24:19.993Z,-5.50
2022-12-17T20:26:49.895Z,-5.46
2022-12-17T20:29:17.744Z,-5.38
2022-12-17T20:31:49.375Z,-5.32
2022-12-17T20:34:17.302Z,-5.24
2022-12-17T20:36:44.764Z,-5.19
2022-12-17T20:39:11.783Z,-5.19
2022-12-17T20:41:40.102Z,-5.19
2022-12-17T20:44:10.965Z,-5.19
2022-12-17T20:46:37.768Z,-5.18
2022-12-17T20:49:05.238Z,-5.16
2022-12-17T20:51:32.074Z,-5.19
2022-12-17T20:54:00.131Z,-5.22
2022-12-17T20:56:32.406Z,-5.31
2022-12-17T20:59:04.810Z,-5.38
2022-12-17T21:01:33.731Z,-5.37
2022-12-17T21:04:01.233Z,-5.32
2022-12-17T21:06:35.211Z,-5.31
2022-12-17T21:09:02.222Z,-5.22
2022-12-17T21:11:30.337Z,-5.31
2022-12-17T21:13:57.619Z,-5.35
2022-12-17T21:16:28.008Z,-5.39
2022-12-17T21:18:55.545Z,-5.40
2022-12-17T21:21:25.366Z,-5.48
2022-12-17T21:23:52.838Z,-5.55
2022-12-17T21:26:28.258Z,-5.67
2022-12-17T21:28:59.152Z,-5.74
2022-12-17T21:31:27.104Z,-5.76
2022-12-17T21:33:57.866Z,-5.88
2022-12-17T21:36:26.217Z,-5.90
2022-12-17T21:38:53.369Z,-5.88
2022-12-17T21:41:22.826Z,-5.84
2022-12-17T21:43:54.540Z,-5.84
2022-12-17T21:46:21.147Z,-5.83
2022-12-17T21:48:48.073Z,-5.81
2022-12-17T21:51:15.099Z,-5.84
2022-12-17T21:53:43.539Z,-5.85
2022-12-17T21:56:13.116Z,-5.82
2022-12-17T21:58:41.024Z,-5.87
2022-12-17T22:01:16.692Z,-5.87
2022-12-17T22:03:45.999Z,-5.83
2022-12-17T22:06:15.280Z,-5.78
2022-12-17T22:08:42.872Z,-5.84
2022-12-17T22:11:19.167Z,-5.80
2022-12-17T22:14:08.927Z,-5.83
2022-12-17T22:16:42.247Z,-5.85
2022-12-17T22:19:11.073Z,-5.88
2022-12-17T22:21:39.768Z,-5.88
2022-12-17T22:24:07.438Z,-5.93
2022-12-17T22:26:34.025Z,-5.93
2022-12-17T22:29:00.783Z,-5.98
2022-12-17T22:31:45.676Z,-6.00
2022-12-17T22:35:05.155Z,-5.91
2022-12-17T22:39:44.932Z,-5.88
2022-12-17T22:44:33.953Z,-5.90
2022-12-17T22:44:40.695Z,-5.91
2022-12-17T22:45:48.842Z,-5.90
2022-12-17T22:48:15.716Z,-6.01
2022-12-17T22:51:01.300Z,-6.08
2022-12-17T22:53:29.264Z,-6.12
2022-12-17T22:56:14.610Z,-6.11
2022-12-17T22:58:51.428Z,-6.12
2022-12-17T23:01:22.733Z,-6.16
2022-12-17T23:03:49.856Z,-6.22
2022-12-17T23:06:17.816Z,-6.26
2022-12-17T23:08:45.094Z,-6.28
2022-12-17T23:11:14.558Z,-6.27
2022-12-17T23:13:42.064Z,-6.32
2022-12-17T23:16:11.091Z,-6.35
2022-12-17T23:18:37.577Z,-6.31
2022-12-17T23:21:07.892Z,-6.31
2022-12-17T23:23:34.708Z,-6.25
2022-12-17T23:26:16.930Z,-6.21
2022-12-17T23:28:44.307Z,-6.24
2022-12-17T23:31:19.157Z,-6.26
2022-12-17T23:33:46.348Z,-6.23
2022-12-17T23:36:15.835Z,-6.27
2022-12-17T23:38:42.949Z,-6.22
2022-12-17T23:41:11.528Z,-6.19
2022-12-17T23:43:39.078Z,-6.24
2022-12-17T23:46:07.891Z,-6.29
2022-12-17T23:48:40.709Z,-6.28
2022-12-17T23:51:10.825Z,-6.36
2022-12-17T23:53:38.672Z,-6.35
2022-12-17T23:56:13.947Z,-6.37
2022-12-17T23:58:42.399Z,-6.36
